Hawaiian Chieftain — WDC8751 — position and weather

sailwx.info

Track history (hours):
 
Tides and Currents Weather Stations Pressure Air Temp Water Temp Dewpoint Dewpoint Depression Visibility Wind Speed Wind Dir Waves Ship Positions

Hawaiian Chieftain (United States)

Operated briefly as "Spirt of Larinda". When she sailed from Sausalito, California, callsign was WAA7737.

Ship's website: http://www.historicalseaport.org/HawaiianChieftain.htm

Owner: GRAYS HARBOR HISTORICAL SEAPORT AUTHORITY, ABERDEEN, WA. More information available from US FCC via Universal Licensing System and Coast Guard Vessel Documentation Center.

Last reported at 2017-Sep-29 21:52 UTC. Time now 2017-Dec-16 01:52 UTC.
Position N 37°50' W 122°26'.
Warning: this ship's position is months out of date.

Length 31 m.

Type: Sailing vessel. MMSI: 367092520.

Date/timePositionNaut miles runAvg speedWind from/ knotsBaromVisibWave heightAir tempDewpointWater temp
2017-Sep-29 21:52N 37°50' W 122°26'3 8.2
2017-Sep-29 21:29N 37°49' W 122°30'22 6.8
2017-Sep-29 18:17N 37°49' W 122°57'5 8.0
2017-Sep-29 17:40N 37°52' W 123°02'2 8.2
2017-Sep-29 17:26N 37°53' W 123°04'9 7.9
2017-Sep-29 16:21N 38°01' W 123°10'3 8.0
2017-Sep-29 15:57N 38°03' W 123°13'4 8.1
2017-Sep-29 15:28N 38°06' W 123°15'4 7.9
2017-Sep-29 15:00N 38°10' W 123°18'4 8.1
2017-Sep-29 14:30N 38°13' W 123°20'4 8.2
2017-Sep-29 14:00N 38°17' W 123°22'4 8.0
2017-Sep-29 13:30N 38°20' W 123°25'4 8.0
2017-Sep-29 13:00N 38°24' W 123°28'  
2017-Sep-27 04:23N 45°35' W 124°08'3 7.9
2017-Sep-27 04:00N 45°38' W 124°08'4 8.2
2017-Sep-27 03:30N 45°42' W 124°08'4 8.4
2017-Sep-27 03:00N 45°46' W 124°08'4 8.5
2017-Sep-27 02:30N 45°50' W 124°09'4 8.6
2017-Sep-27 02:00N 45°55' W 124°09'4 8.3
2017-Sep-27 01:31N 45°59' W 124°09'6 8.2
2017-Sep-27 00:48N 46°05' W 124°10'3 8.2
2017-Sep-27 00:27N 46°08' W 124°11'4 8.4
2017-Sep-27 00:00N 46°11' W 124°11'5 8.9
2017-Sep-26 23:26N 46°15' W 124°05'3 4.5
2017-Sep-26 22:48N 46°17' W 124°03'1 3.2
2017-Sep-26 22:25N 46°18' W 124°02'0 0.0
2017-Sep-26 21:56N 46°18' W 124°02'0 0.0
2017-Sep-26 21:28N 46°18' W 124°02'0 0.0
2017-Sep-26 20:51N 46°18' W 124°02'0 0.0
2017-Sep-26 20:13N 46°18' W 124°02'0 0.0
2017-Sep-26 19:44N 46°18' W 124°02'0 0.0
2017-Sep-26 19:29N 46°18' W 124°02'0 0.0
2017-Sep-26 19:00N 46°18' W 124°02'0 0.0
2017-Sep-26 18:28N 46°18' W 124°02'0 0.0
2017-Sep-26 17:54N 46°18' W 124°02'0 0.0
2017-Sep-26 17:26N 46°18' W 124°02'0 0.0
2017-Sep-26 17:00N 46°18' W 124°02'0 0.0
2017-Sep-26 16:29N 46°18' W 124°02'0 0.0
2017-Sep-26 15:59N 46°18' W 124°02'0 0.0
2017-Sep-26 15:28N 46°18' W 124°02'0 0.0
2017-Sep-26 14:56N 46°18' W 124°02'0 0.0
2017-Sep-26 14:28N 46°18' W 124°02'0 0.0
2017-Sep-26 13:42N 46°18' W 124°02'0 0.0
2017-Sep-26 13:30N 46°18' W 124°02'0 0.0
2017-Sep-26 12:59N 46°18' W 124°02'0 0.0
2017-Sep-26 12:30N 46°18' W 124°02'0 0.0
2017-Sep-26 11:58N 46°18' W 124°02'0 0.0
2017-Sep-26 11:28N 46°18' W 124°02'0 0.0
2017-Sep-26 10:59N 46°18' W 124°02'0 0.0
2017-Sep-26 10:27N 46°18' W 124°02'0 0.0
2017-Sep-26 09:58N 46°18' W 124°02'0 0.0
2017-Sep-26 09:26N 46°18' W 124°02'0 0.0
2017-Sep-26 09:00N 46°18' W 124°02'0 0.0
2017-Sep-26 08:30N 46°18' W 124°02'0 0.0
2017-Sep-26 08:00N 46°18' W 124°02'0 0.0
2017-Sep-26 07:28N 46°18' W 124°02'0 0.0
2017-Sep-26 06:59N 46°18' W 124°02'0 0.0
2017-Sep-26 06:29N 46°18' W 124°02'0 0.0
2017-Sep-26 05:56N 46°18' W 124°02'0 0.0
2017-Sep-26 05:28N 46°18' W 124°02'0 0.0
2017-Sep-26 04:46N 46°18' W 124°02'0 0.0
2017-Sep-26 04:11N 46°18' W 124°02'0 0.2
2017-Sep-26 04:00N 46°18' W 124°02'0 0.0
2017-Sep-26 01:49N 46°18' W 124°02'0 0.0
2017-Sep-26 01:29N 46°18' W 124°02'0 0.0
2017-Sep-26 00:57N 46°18' W 124°02'0 0.0
2017-Sep-26 00:29N 46°18' W 124°02'0 0.0
2017-Sep-25 23:58N 46°18' W 124°02'0 0.0
2017-Sep-25 23:30N 46°18' W 124°02'0 0.0
2017-Sep-25 23:00N 46°18' W 124°02'0 0.0
2017-Sep-25 22:31N 46°18' W 124°02'0 0.0
2017-Sep-25 21:56N 46°18' W 124°02'0 0.0
2017-Sep-25 21:16N 46°18' W 124°02'0 0.0
2017-Sep-25 21:00N 46°18' W 124°02'0 0.0
2017-Sep-25 20:30N 46°18' W 124°02'0 0.0
2017-Sep-25 19:54N 46°18' W 124°02'0 0.0
2017-Sep-25 19:30N 46°18' W 124°02'0 0.0
2017-Sep-25 19:00N 46°18' W 124°02'0 0.0
2017-Sep-25 18:28N 46°18' W 124°02'0 0.0
2017-Sep-25 17:59N 46°18' W 124°02'0 0.0
2017-Sep-25 17:30N 46°18' W 124°02'0 0.0
2017-Sep-25 17:00N 46°18' W 124°02'0 0.0
2017-Sep-25 16:29N 46°18' W 124°02'0 0.0
2017-Sep-25 16:00N 46°18' W 124°02'0 0.0
2017-Sep-25 15:25N 46°18' W 124°02'0 0.0
2017-Sep-25 14:55N 46°18' W 124°02'0 0.0
2017-Sep-25 14:27N 46°18' W 124°02'0 0.0
2017-Sep-25 14:00N 46°18' W 124°02'0 0.0
2017-Sep-25 13:29N 46°18' W 124°02'0 0.0
2017-Sep-25 12:59N 46°18' W 124°02'0 0.0
2017-Sep-25 12:24N 46°18' W 124°02'0 0.0
2017-Sep-25 11:59N 46°18' W 124°02'0 0.0
2017-Sep-25 11:29N 46°18' W 124°02'0 0.0
2017-Sep-25 10:59N 46°18' W 124°02'0 0.0
2017-Sep-25 10:29N 46°18' W 124°02'0 0.0
2017-Sep-25 09:57N 46°18' W 124°02'0 0.0
2017-Sep-25 09:26N 46°18' W 124°02'0 0.0
2017-Sep-25 08:49N 46°18' W 124°02'0 0.0
2017-Sep-25 08:16N 46°18' W 124°02'0 0.0
2017-Sep-25 07:55N 46°18' W 124°02'0 0.0
2017-Sep-25 07:28N 46°18' W 124°02'0 0.0
2017-Sep-25 06:58N 46°18' W 124°02'0 0.0
2017-Sep-25 06:28N 46°18' W 124°02'0 0.0
2017-Sep-25 05:59N 46°18' W 124°02'0 0.0
2017-Sep-25 05:29N 46°18' W 124°02'0 0.0
2017-Sep-25 05:00N 46°18' W 124°02'0 0.0
2017-Sep-25 04:28N 46°18' W 124°02'0 0.0
2017-Sep-25 03:41N 46°18' W 124°02'0 0.0
2017-Sep-25 03:28N 46°18' W 124°02'0 0.0
2017-Sep-25 03:00N 46°18' W 124°02'0 0.0
2017-Sep-25 02:10N 46°18' W 124°02'0 0.0
2017-Sep-25 01:58N 46°18' W 124°02'0 0.0
2017-Sep-25 01:26N 46°18' W 124°02'0 0.0
2017-Sep-25 00:59N 46°18' W 124°02'0 0.0
2017-Sep-25 00:29N 46°18' W 124°02'0 0.0
2017-Sep-24 23:53N 46°18' W 124°02'0 0.0
2017-Sep-24 23:30N 46°18' W 124°02'0 0.5
2017-Sep-24 23:00N 46°18' W 124°03'2 4.8
2017-Sep-24 22:30N 46°16' W 124°02'0 0.5
2017-Sep-24 22:00N 46°16' W 124°01'2 3.2
2017-Sep-24 21:30N 46°17' W 124°03'1 2.9
2017-Sep-24 21:01N 46°18' W 124°02'0 0.0
2017-Sep-24 20:27N 46°18' W 124°02'0 0.0
2017-Sep-24 20:00N 46°18' W 124°02'2 3.7
2017-Sep-24 19:24N 46°16' W 124°02'0 0.9
2017-Sep-24 18:59N 46°16' W 124°01'2 3.6
2017-Sep-24 18:30N 46°17' W 124°03'1 2.2
2017-Sep-24 17:54N 46°18' W 124°02'0 0.0
2017-Sep-24 17:26N 46°18' W 124°02'0 0.0
2017-Sep-24 16:58N 46°18' W 124°02'0 0.0
2017-Sep-24 16:30N 46°18' W 124°02'0 0.0
2017-Sep-24 15:58N 46°18' W 124°02'0 0.0
2017-Sep-24 15:27N 46°18' W 124°02'0 0.0
2017-Sep-24 15:00N 46°18' W 124°02'0 0.0
2017-Sep-24 14:30N 46°18' W 124°02'0 0.0
2017-Sep-24 14:00N 46°18' W 124°02'0 0.0
2017-Sep-24 13:30N 46°18' W 124°02'0 0.0
2017-Sep-24 12:58N 46°18' W 124°02'0 0.0
2017-Sep-24 12:15N 46°18' W 124°02'0 0.0
2017-Sep-24 11:39N 46°18' W 124°02'0 0.0
2017-Sep-24 11:27N 46°18' W 124°02'0 0.0
2017-Sep-24 11:00N 46°18' W 124°02'0 0.0
2017-Sep-24 10:30N 46°18' W 124°02'0 0.0
2017-Sep-24 09:59N 46°18' W 124°02'0 0.0
2017-Sep-24 09:28N 46°18' W 124°02'0 0.0
2017-Sep-24 09:00N 46°18' W 124°02'0 0.0
2017-Sep-24 08:28N 46°18' W 124°02'0 0.0
2017-Sep-24 07:58N 46°18' W 124°02'0 0.0
2017-Sep-24 07:30N 46°18' W 124°02'0 0.0
2017-Sep-24 07:00N 46°18' W 124°02'0 0.0
2017-Sep-24 06:31N 46°18' W 124°02'0 0.0
2017-Sep-24 06:00N 46°18' W 124°02'0 0.3
2017-Sep-24 05:30N 46°18' W 124°03'0 0.3
2017-Sep-24 05:00N 46°18' W 124°02'0 0.1
2017-Sep-24 04:29N 46°18' W 124°02'0 0.0
2017-Sep-24 04:00N 46°18' W 124°02'0 0.0
2017-Sep-24 03:29N 46°18' W 124°02'0 0.0
2017-Sep-24 03:01N 46°18' W 124°02'0 0.0
2017-Sep-24 02:30N 46°18' W 124°02'0 0.1
2017-Sep-24 02:00N 46°18' W 124°02'0 0.1
2017-Sep-24 01:30N 46°18' W 124°02'0 0.0
2017-Sep-24 00:59N 46°18' W 124°02'0 0.0
2017-Sep-24 00:28N 46°18' W 124°02'0 0.8
2017-Sep-24 00:00N 46°18' W 124°02'2 3.7
2017-Sep-23 23:30N 46°16' W 124°02'2 3.6
2017-Sep-23 23:00N 46°15' W 123°59'0 0.4
2017-Sep-23 22:30N 46°15' W 123°60'2 3.4
2017-Sep-23 22:00N 46°16' W 124°02'2 4.0
2017-Sep-23 21:30N 46°18' W 124°03'0 0.2
2017-Sep-23 20:27N 46°18' W 124°02'0 0.0
2017-Sep-23 19:58N 46°18' W 124°02'  
Track history (hours):
 
Tides and Currents Weather Stations Pressure Air Temp Water Temp Dewpoint Dewpoint Depression Visibility Wind Speed Wind Dir Waves Ship Positions

Hawaiian Chieftain (United States)

Operated briefly as "Spirt of Larinda". When she sailed from Sausalito, California, callsign was WAA7737.

Ship's website: http://www.historicalseaport.org/HawaiianChieftain.htm

Owner: GRAYS HARBOR HISTORICAL SEAPORT AUTHORITY, ABERDEEN, WA. More information available from US FCC via Universal Licensing System and Coast Guard Vessel Documentation Center.

Last reported at 2017-Sep-29 21:52 UTC. Time now 2017-Dec-16 01:52 UTC.
Position N 37°50' W 122°26'.
Warning: this ship's position is months out of date.

Length 31 m.

Type: Sailing vessel. MMSI: 367092520.

Date/timePositionNaut miles runAvg speedWind from/ knotsBaromVisibWave heightAir tempDewpointWater temp
2017-Sep-29 21:52N 37°50' W 122°26'3 8.2
2017-Sep-29 21:29N 37°49' W 122°30'22 6.8
2017-Sep-29 18:17N 37°49' W 122°57'5 8.0
2017-Sep-29 17:40N 37°52' W 123°02'2 8.2
2017-Sep-29 17:26N 37°53' W 123°04'9 7.9
2017-Sep-29 16:21N 38°01' W 123°10'3 8.0
2017-Sep-29 15:57N 38°03' W 123°13'4 8.1
2017-Sep-29 15:28N 38°06' W 123°15'4 7.9
2017-Sep-29 15:00N 38°10' W 123°18'4 8.1
2017-Sep-29 14:30N 38°13' W 123°20'4 8.2
2017-Sep-29 14:00N 38°17' W 123°22'4 8.0
2017-Sep-29 13:30N 38°20' W 123°25'4 8.0
2017-Sep-29 13:00N 38°24' W 123°28'  
2017-Sep-27 04:23N 45°35' W 124°08'3 7.9
2017-Sep-27 04:00N 45°38' W 124°08'4 8.2
2017-Sep-27 03:30N 45°42' W 124°08'4 8.4
2017-Sep-27 03:00N 45°46' W 124°08'4 8.5
2017-Sep-27 02:30N 45°50' W 124°09'4 8.6
2017-Sep-27 02:00N 45°55' W 124°09'4 8.3
2017-Sep-27 01:31N 45°59' W 124°09'6 8.2
2017-Sep-27 00:48N 46°05' W 124°10'3 8.2
2017-Sep-27 00:27N 46°08' W 124°11'4 8.4
2017-Sep-27 00:00N 46°11' W 124°11'5 8.9
2017-Sep-26 23:26N 46°15' W 124°05'3 4.5
2017-Sep-26 22:48N 46°17' W 124°03'1 3.2
2017-Sep-26 22:25N 46°18' W 124°02'0 0.0
2017-Sep-26 21:56N 46°18' W 124°02'0 0.0
2017-Sep-26 21:28N 46°18' W 124°02'0 0.0
2017-Sep-26 20:51N 46°18' W 124°02'0 0.0
2017-Sep-26 20:13N 46°18' W 124°02'0 0.0
2017-Sep-26 19:44N 46°18' W 124°02'0 0.0
2017-Sep-26 19:29N 46°18' W 124°02'0 0.0
2017-Sep-26 19:00N 46°18' W 124°02'0 0.0
2017-Sep-26 18:28N 46°18' W 124°02'0 0.0
2017-Sep-26 17:54N 46°18' W 124°02'0 0.0
2017-Sep-26 17:26N 46°18' W 124°02'0 0.0
2017-Sep-26 17:00N 46°18' W 124°02'0 0.0
2017-Sep-26 16:29N 46°18' W 124°02'0 0.0
2017-Sep-26 15:59N 46°18' W 124°02'0 0.0
2017-Sep-26 15:28N 46°18' W 124°02'0 0.0
2017-Sep-26 14:56N 46°18' W 124°02'0 0.0
2017-Sep-26 14:28N 46°18' W 124°02'0 0.0
2017-Sep-26 13:42N 46°18' W 124°02'0 0.0
2017-Sep-26 13:30N 46°18' W 124°02'0 0.0
2017-Sep-26 12:59N 46°18' W 124°02'0 0.0
2017-Sep-26 12:30N 46°18' W 124°02'0 0.0
2017-Sep-26 11:58N 46°18' W 124°02'0 0.0
2017-Sep-26 11:28N 46°18' W 124°02'0 0.0
2017-Sep-26 10:59N 46°18' W 124°02'0 0.0
2017-Sep-26 10:27N 46°18' W 124°02'0 0.0
2017-Sep-26 09:58N 46°18' W 124°02'0 0.0
2017-Sep-26 09:26N 46°18' W 124°02'0 0.0
2017-Sep-26 09:00N 46°18' W 124°02'0 0.0
2017-Sep-26 08:30N 46°18' W 124°02'0 0.0
2017-Sep-26 08:00N 46°18' W 124°02'0 0.0
2017-Sep-26 07:28N 46°18' W 124°02'0 0.0
2017-Sep-26 06:59N 46°18' W 124°02'0 0.0
2017-Sep-26 06:29N 46°18' W 124°02'0 0.0
2017-Sep-26 05:56N 46°18' W 124°02'0 0.0
2017-Sep-26 05:28N 46°18' W 124°02'0 0.0
2017-Sep-26 04:46N 46°18' W 124°02'0 0.0
2017-Sep-26 04:11N 46°18' W 124°02'0 0.2
2017-Sep-26 04:00N 46°18' W 124°02'0 0.0
2017-Sep-26 01:49N 46°18' W 124°02'0 0.0
2017-Sep-26 01:29N 46°18' W 124°02'0 0.0
2017-Sep-26 00:57N 46°18' W 124°02'0 0.0
2017-Sep-26 00:29N 46°18' W 124°02'0 0.0
2017-Sep-25 23:58N 46°18' W 124°02'0 0.0
2017-Sep-25 23:30N 46°18' W 124°02'0 0.0
2017-Sep-25 23:00N 46°18' W 124°02'0 0.0
2017-Sep-25 22:31N 46°18' W 124°02'0 0.0
2017-Sep-25 21:56N 46°18' W 124°02'0 0.0
2017-Sep-25 21:16N 46°18' W 124°02'0 0.0
2017-Sep-25 21:00N 46°18' W 124°02'0 0.0
2017-Sep-25 20:30N 46°18' W 124°02'0 0.0
2017-Sep-25 19:54N 46°18' W 124°02'0 0.0
2017-Sep-25 19:30N 46°18' W 124°02'0 0.0
2017-Sep-25 19:00N 46°18' W 124°02'0 0.0
2017-Sep-25 18:28N 46°18' W 124°02'0 0.0
2017-Sep-25 17:59N 46°18' W 124°02'0 0.0
2017-Sep-25 17:30N 46°18' W 124°02'0 0.0
2017-Sep-25 17:00N 46°18' W 124°02'0 0.0
2017-Sep-25 16:29N 46°18' W 124°02'0 0.0
2017-Sep-25 16:00N 46°18' W 124°02'0 0.0
2017-Sep-25 15:25N 46°18' W 124°02'0 0.0
2017-Sep-25 14:55N 46°18' W 124°02'0 0.0
2017-Sep-25 14:27N 46°18' W 124°02'0 0.0
2017-Sep-25 14:00N 46°18' W 124°02'0 0.0
2017-Sep-25 13:29N 46°18' W 124°02'0 0.0
2017-Sep-25 12:59N 46°18' W 124°02'0 0.0
2017-Sep-25 12:24N 46°18' W 124°02'0 0.0
2017-Sep-25 11:59N 46°18' W 124°02'0 0.0
2017-Sep-25 11:29N 46°18' W 124°02'0 0.0
2017-Sep-25 10:59N 46°18' W 124°02'0 0.0
2017-Sep-25 10:29N 46°18' W 124°02'0 0.0
2017-Sep-25 09:57N 46°18' W 124°02'0 0.0
2017-Sep-25 09:26N 46°18' W 124°02'0 0.0
2017-Sep-25 08:49N 46°18' W 124°02'0 0.0
2017-Sep-25 08:16N 46°18' W 124°02'0 0.0
2017-Sep-25 07:55N 46°18' W 124°02'0 0.0
2017-Sep-25 07:28N 46°18' W 124°02'0 0.0
2017-Sep-25 06:58N 46°18' W 124°02'0 0.0
2017-Sep-25 06:28N 46°18' W 124°02'0 0.0
2017-Sep-25 05:59N 46°18' W 124°02'0 0.0
2017-Sep-25 05:29N 46°18' W 124°02'0 0.0
2017-Sep-25 05:00N 46°18' W 124°02'0 0.0
2017-Sep-25 04:28N 46°18' W 124°02'0 0.0
2017-Sep-25 03:41N 46°18' W 124°02'0 0.0
2017-Sep-25 03:28N 46°18' W 124°02'0 0.0
2017-Sep-25 03:00N 46°18' W 124°02'0 0.0
2017-Sep-25 02:10N 46°18' W 124°02'0 0.0
2017-Sep-25 01:58N 46°18' W 124°02'0 0.0
2017-Sep-25 01:26N 46°18' W 124°02'0 0.0
2017-Sep-25 00:59N 46°18' W 124°02'0 0.0
2017-Sep-25 00:29N 46°18' W 124°02'0 0.0
2017-Sep-24 23:53N 46°18' W 124°02'0 0.0
2017-Sep-24 23:30N 46°18' W 124°02'0 0.5
2017-Sep-24 23:00N 46°18' W 124°03'2 4.8
2017-Sep-24 22:30N 46°16' W 124°02'0 0.5
2017-Sep-24 22:00N 46°16' W 124°01'2 3.2
2017-Sep-24 21:30N 46°17' W 124°03'1 2.9
2017-Sep-24 21:01N 46°18' W 124°02'0 0.0
2017-Sep-24 20:27N 46°18' W 124°02'0 0.0
2017-Sep-24 20:00N 46°18' W 124°02'2 3.7
2017-Sep-24 19:24N 46°16' W 124°02'0 0.9
2017-Sep-24 18:59N 46°16' W 124°01'2 3.6
2017-Sep-24 18:30N 46°17' W 124°03'1 2.2
2017-Sep-24 17:54N 46°18' W 124°02'0 0.0
2017-Sep-24 17:26N 46°18' W 124°02'0 0.0
2017-Sep-24 16:58N 46°18' W 124°02'0 0.0
2017-Sep-24 16:30N 46°18' W 124°02'0 0.0
2017-Sep-24 15:58N 46°18' W 124°02'0 0.0
2017-Sep-24 15:27N 46°18' W 124°02'0 0.0
2017-Sep-24 15:00N 46°18' W 124°02'0 0.0
2017-Sep-24 14:30N 46°18' W 124°02'0 0.0
2017-Sep-24 14:00N 46°18' W 124°02'0 0.0
2017-Sep-24 13:30N 46°18' W 124°02'0 0.0
2017-Sep-24 12:58N 46°18' W 124°02'0 0.0
2017-Sep-24 12:15N 46°18' W 124°02'0 0.0
2017-Sep-24 11:39N 46°18' W 124°02'0 0.0
2017-Sep-24 11:27N 46°18' W 124°02'0 0.0
2017-Sep-24 11:00N 46°18' W 124°02'0 0.0
2017-Sep-24 10:30N 46°18' W 124°02'0 0.0
2017-Sep-24 09:59N 46°18' W 124°02'0 0.0
2017-Sep-24 09:28N 46°18' W 124°02'0 0.0
2017-Sep-24 09:00N 46°18' W 124°02'0 0.0
2017-Sep-24 08:28N 46°18' W 124°02'0 0.0
2017-Sep-24 07:58N 46°18' W 124°02'0 0.0
2017-Sep-24 07:30N 46°18' W 124°02'0 0.0
2017-Sep-24 07:00N 46°18' W 124°02'0 0.0
2017-Sep-24 06:31N 46°18' W 124°02'0 0.0
2017-Sep-24 06:00N 46°18' W 124°02'0 0.3
2017-Sep-24 05:30N 46°18' W 124°03'0 0.3
2017-Sep-24 05:00N 46°18' W 124°02'0 0.1
2017-Sep-24 04:29N 46°18' W 124°02'0 0.0
2017-Sep-24 04:00N 46°18' W 124°02'0 0.0
2017-Sep-24 03:29N 46°18' W 124°02'0 0.0
2017-Sep-24 03:01N 46°18' W 124°02'0 0.0
2017-Sep-24 02:30N 46°18' W 124°02'0 0.1
2017-Sep-24 02:00N 46°18' W 124°02'0 0.1
2017-Sep-24 01:30N 46°18' W 124°02'0 0.0
2017-Sep-24 00:59N 46°18' W 124°02'0 0.0
2017-Sep-24 00:28N 46°18' W 124°02'0 0.8
2017-Sep-24 00:00N 46°18' W 124°02'2 3.7
2017-Sep-23 23:30N 46°16' W 124°02'2 3.6
2017-Sep-23 23:00N 46°15' W 123°59'0 0.4
2017-Sep-23 22:30N 46°15' W 123°60'2 3.4
2017-Sep-23 22:00N 46°16' W 124°02'2 4.0
2017-Sep-23 21:30N 46°18' W 124°03'0 0.2
2017-Sep-23 20:27N 46°18' W 124°02'0 0.0
2017-Sep-23 19:58N 46°18' W 124°02'  

Dump ship's entire track history